Time;durP1;ratioP1;P1;durP2;ratioP2;P2;SDS_P1;SDS_P2;PMS_P1;PMS_P2;Temp;Humidity;BMP_temperature;BMP_pressure;BME280_temperature;BME280_humidity;BME280_pressure;Samples;Min_cycle;Max_cycle;Signal;HPM_P1;HPM_P2
2021/05/06 00:30:48;;;;;;;8.87;7.40;;;9.40;93.30;;;;;;5075113;28;20395;-82
2021/05/06 00:33:13;;;;;;;7.00;6.43;;;9.40;93.50;;;;;;5075031;28;20765;-82
2021/05/06 00:35:38;;;;;;;7.93;7.23;;;9.40;93.40;;;;;;5074680;28;20507;-82
2021/05/06 00:38:11;;;;;;;8.03;7.33;;;9.60;93.60;;;;;;5073073;28;20541;-82
2021/05/06 01:09:58;;;;;;;10.43;9.63;;;9.40;92.60;;;;;;5075112;28;20753;-82
2021/05/06 01:12:23;;;;;;;9.37;8.57;;;9.30;92.80;;;;;;5053497;28;20383;-81
2021/05/06 01:14:49;;;;;;;10.57;9.57;;;9.30;92.90;;;;;;5054195;28;20419;-82
2021/05/06 01:17:15;;;;;;;9.87;9.07;;;9.30;92.90;;;;;;5072740;28;20189;-82
2021/05/06 01:19:41;;;;;;;11.60;10.70;;;9.30;92.90;;;;;;5074482;28;20536;-82
2021/05/06 01:22:06;;;;;;;10.30;9.50;;;9.30;93.10;;;;;;5073875;28;20173;-81
2021/05/06 01:24:33;;;;;;;10.00;9.20;;;9.30;93.20;;;;;;5072796;28;20455;-81
2021/05/06 01:27:12;;;;;;;11.10;10.10;;;9.30;93.30;;;;;;5074110;28;20196;-81
2021/05/06 01:29:54;;;;;;;10.00;9.00;;;9.40;93.30;;;;;;5074537;28;20602;-81
2021/05/06 01:32:23;;;;;;;9.67;8.87;;;9.30;93.10;;;;;;5073172;28;20472;-81
2021/05/06 01:35:12;;;;;;;10.47;9.20;;;9.30;93.60;;;;;;5073617;28;20490;-82
2021/05/06 01:38:28;;;;;;;10.80;9.80;;;9.30;93.90;;;;;;5074114;28;20477;-81
2021/05/06 01:43:46;;;;;;;9.50;8.60;;;9.10;94.10;;;;;;5011310;28;20535;-81
2021/05/06 01:59:59;;;;;;;9.80;8.80;;;8.90;94.60;;;;;;5052923;28;20888;-82
2021/05/06 02:02:25;;;;;;;10.50;9.47;;;8.80;94.70;;;;;;5053702;28;20391;-81
2021/05/06 02:04:51;;;;;;;11.43;10.30;;;8.70;94.80;;;;;;5052459;28;20419;-82
2021/05/06 02:07:16;;;;;;;11.20;10.10;;;8.70;94.90;;;;;;5053491;28;20275;-81
2021/05/06 02:09:45;;;;;;;10.30;9.30;;;8.60;95.00;;;;;;5052102;28;20515;-81
2021/05/06 02:12:12;;;;;;;13.27;11.13;;;8.70;95.10;;;;;;5052923;28;20170;-82
2021/05/06 02:14:38;;;;;;;11.60;10.50;;;8.50;95.00;;;;;;5052151;28;20401;-81
2021/05/06 02:17:04;;;;;;;12.17;11.07;;;8.50;95.30;;;;;;5052804;28;20913;-82
2021/05/06 02:19:34;;;;;;;12.63;11.53;;;8.40;95.40;;;;;;5053257;28;20469;-82
2021/05/06 02:22:03;;;;;;;11.07;10.10;;;8.40;95.70;;;;;;5052757;28;20391;-82
2021/05/06 02:24:29;;;;;;;10.90;10.00;;;8.40;95.80;;;;;;5051849;28;20491;-82
2021/05/06 02:26:54;;;;;;;10.13;9.30;;;8.30;95.40;;;;;;5052700;28;20393;-82
2021/05/06 02:29:20;;;;;;;9.20;8.40;;;8.30;95.30;;;;;;5053208;28;20271;-82
2021/05/06 02:31:46;;;;;;;9.37;8.57;;;8.30;95.10;;;;;;5052812;28;20208;-81
2021/05/06 02:34:12;;;;;;;8.40;7.67;;;8.50;95.30;;;;;;5052471;28;20174;-82
2021/05/06 02:36:37;;;;;;;9.53;8.53;;;8.50;95.30;;;;;;5053326;28;20662;-82
2021/05/06 02:39:04;;;;;;;8.57;7.77;;;8.50;95.00;;;;;;5051136;28;20210;-82
2021/05/06 02:41:30;;;;;;;8.77;8.00;;;8.50;94.90;;;;;;5051809;28;20182;-82
2021/05/06 02:43:56;;;;;;;8.67;7.83;;;8.60;95.10;;;;;;5052314;28;20410;-82
2021/05/06 02:46:24;;;;;;;7.93;7.03;;;8.50;94.80;;;;;;5051731;28;20203;-81
2021/05/06 02:48:50;;;;;;;8.57;7.70;;;8.50;94.90;;;;;;5051131;28;20178;-84
2021/05/06 02:51:15;;;;;;;6.97;6.37;;;8.60;95.00;;;;;;5052909;28;20419;-81
2021/05/06 02:53:49;;;;;;;7.13;6.53;;;8.70;95.00;;;;;;5051606;28;20635;-80
2021/05/06 03:04:10;;;;;;;6.93;6.43;;;8.80;94.60;;;;;;5052171;28;20785;-82
2021/05/06 03:11:55;;;;;;;8.33;7.53;;;8.90;95.00;;;;;;5071791;28;20419;-80
2021/05/06 03:22:43;;;;;;;6.77;6.07;;;9.00;95.40;;;;;;5072402;28;20469;-80
2021/05/06 03:25:14;;;;;;;7.40;6.70;;;9.00;95.70;;;;;;5070609;28;20438;-80
2021/05/06 03:44:03;;;;;;;8.13;7.30;;;9.10;97.40;;;;;;5072367;28;20400;-81
2021/05/06 04:18:55;;;;;;;9.53;8.83;;;9.20;97.00;;;;;;5072034;28;20494;-83
2021/05/06 04:37:20;;;;;;;9.73;9.03;;;9.20;97.90;;;;;;5055053;28;20408;-83
2021/05/06 04:45:27;;;;;;;9.23;8.50;;;9.20;97.90;;;;;;5055139;28;20185;-84
2021/05/06 04:56:00;;;;;;;8.37;7.47;;;9.20;97.70;;;;;;5055012;28;20411;-83
2021/05/06 04:58:56;;;;;;;9.43;8.73;;;9.10;97.50;;;;;;5037164;28;20440;-83
2021/05/06 05:06:44;;;;;;;10.47;9.60;;;9.30;97.70;;;;;;5052579;28;20428;-83
2021/05/06 05:12:09;;;;;;;7.20;6.70;;;9.20;97.60;;;;;;5053666;28;20423;-82
2021/05/06 05:27:23;;;;;;;7.77;7.17;;;9.40;97.30;;;;;;5052497;28;20596;-83
2021/05/06 05:29:49;;;;;;;8.50;7.70;;;9.40;97.10;;;;;;5036071;28;20187;-81
2021/05/06 05:32:15;;;;;;;8.60;6.70;;;9.40;97.20;;;;;;5035526;28;20424;-82
2021/05/06 05:34:45;;;;;;;7.00;6.40;;;9.50;97.20;;;;;;5035595;28;20489;-82
2021/05/06 05:37:19;;;;;;;7.40;6.80;;;9.50;97.00;;;;;;5053445;28;20419;-82
2021/05/06 05:40:35;;;;;;;7.10;6.43;;;9.50;97.00;;;;;;5052652;28;20589;-81
2021/05/06 05:56:03;;;;;;;8.83;8.13;;;9.70;96.50;;;;;;5053516;28;20412;-85
2021/05/06 05:58:28;;;;;;;7.80;7.20;;;9.70;96.50;;;;;;5053738;28;20466;-83
2021/05/06 06:00:54;;;;;;;7.23;6.60;;;9.80;96.30;;;;;;5053508;28;20186;-81
2021/05/06 06:03:21;;;;;;;8.20;7.40;;;9.80;96.20;;;;;;5052901;28;20807;-80
2021/05/06 06:05:47;;;;;;;7.83;7.23;;;9.70;96.00;;;;;;5053510;28;20185;-80
2021/05/06 06:08:16;;;;;;;8.03;7.33;;;9.70;95.90;;;;;;5052455;28;20915;-81
2021/05/06 06:10:42;;;;;;;7.60;7.00;;;9.80;96.10;;;;;;5052746;28;20431;-82
2021/05/06 06:13:08;;;;;;;8.10;7.50;;;9.80;96.20;;;;;;5051949;28;20432;-78
2021/05/06 06:15:53;;;;;;;10.17;7.40;;;9.80;96.30;;;;;;5052169;28;20182;-76
2021/05/06 06:18:25;;;;;;;10.00;9.07;;;9.80;96.00;;;;;;5034215;28;20463;-76
2021/05/06 06:23:37;;;;;;;8.20;7.50;;;9.80;96.20;;;;;;4999578;28;20864;-78
2021/05/06 06:26:03;;;;;;;9.70;8.80;;;9.80;96.00;;;;;;5051220;28;20438;-80
2021/05/06 06:28:36;;;;;;;9.90;9.00;;;9.80;96.30;;;;;;5034730;28;20432;-77
2021/05/06 06:31:02;;;;;;;8.43;7.63;;;9.80;96.20;;;;;;5052510;28;20763;-82
2021/05/06 06:33:28;;;;;;;9.60;8.70;;;9.80;96.30;;;;;;5052012;28;20428;-82
2021/05/06 06:35:54;;;;;;;9.23;8.33;;;9.80;96.40;;;;;;5052555;28;20420;-77
2021/05/06 06:38:19;;;;;;;9.80;8.80;;;9.90;96.50;;;;;;5034338;28;20205;-77
2021/05/06 06:40:45;;;;;;;11.53;10.40;;;9.80;96.50;;;;;;5052460;28;20178;-78
2021/05/06 06:43:12;;;;;;;11.80;9.53;;;9.90;96.10;;;;;;5050950;28;20184;-78
2021/05/06 06:45:37;;;;;;;10.07;8.53;;;9.80;96.40;;;;;;5052388;28;20178;-79
2021/05/06 06:48:04;;;;;;;10.77;9.87;;;9.80;96.00;;;;;;5051879;28;20486;-81
2021/05/06 06:50:29;;;;;;;10.37;9.40;;;9.80;96.10;;;;;;5034726;28;20684;-78
2021/05/06 06:52:55;;;;;;;11.80;10.60;;;9.80;96.30;;;;;;5052601;28;20583;-78
2021/05/06 06:55:21;;;;;;;13.70;12.40;;;9.80;96.20;;;;;;5034355;28;20622;-78
2021/05/06 06:57:47;;;;;;;11.50;10.40;;;9.80;96.40;;;;;;5052778;28;20514;-78
2021/05/06 07:00:13;;;;;;;11.07;10.00;;;9.70;96.50;;;;;;5052220;28;20253;-78
2021/05/06 07:02:38;;;;;;;12.27;11.10;;;9.70;96.40;;;;;;5052734;28;20166;-78
2021/05/06 07:05:05;;;;;;;13.47;12.17;;;9.80;96.50;;;;;;5051715;28;20505;-80
2021/05/06 07:07:31;;;;;;;13.03;11.73;;;9.80;96.50;;;;;;5052697;28;20223;-78
2021/05/06 07:09:56;;;;;;;13.47;12.17;;;9.90;96.80;;;;;;5052564;28;20409;-78
2021/05/06 07:12:22;;;;;;;12.47;11.20;;;10.00;95.90;;;;;;5052056;28;20610;-82
2021/05/06 07:14:48;;;;;;;11.10;10.10;;;10.10;96.00;;;;;;5052326;28;20669;-81
2021/05/06 07:17:14;;;;;;;11.80;10.80;;;10.20;95.60;;;;;;5033824;28;20202;-81
2021/05/06 07:19:39;;;;;;;11.57;10.33;;;10.10;95.40;;;;;;5052318;28;20198;-81
2021/05/06 07:22:05;;;;;;;11.40;10.30;;;10.20;94.90;;;;;;5034335;28;20174;-81
2021/05/06 07:24:32;;;;;;;11.83;10.73;;;10.20;95.50;;;;;;5052368;28;20210;-81
2021/05/06 07:27:01;;;;;;;11.90;10.77;;;10.30;95.80;;;;;;5051962;28;20178;-77
2021/05/06 07:29:27;;;;;;;13.67;12.37;;;10.30;95.90;;;;;;5050045;28;20618;-77
2021/05/06 07:31:53;;;;;;;11.40;10.40;;;10.40;96.20;;;;;;5050987;28;20424;-77
2021/05/06 07:34:20;;;;;;;11.20;10.00;;;10.30;95.40;;;;;;5051060;28;20564;-77
2021/05/06 07:36:46;;;;;;;12.57;11.47;;;10.30;94.90;;;;;;5009099;28;20429;-77
2021/05/06 07:39:12;;;;;;;12.60;11.20;;;10.30;95.00;;;;;;5027701;28;20464;-77
2021/05/06 07:41:37;;;;;;;10.83;9.83;;;10.30;95.00;;;;;;5051678;28;20441;-77
2021/05/06 07:44:04;;;;;;;12.53;11.27;;;10.20;94.60;;;;;;5051562;28;20483;-77
2021/05/06 07:46:29;;;;;;;11.53;10.43;;;10.20;94.40;;;;;;5051022;28;20185;-77
2021/05/06 07:48:55;;;;;;;11.93;10.67;;;10.20;94.30;;;;;;5051070;28;20516;-77
2021/05/06 07:51:21;;;;;;;12.17;10.90;;;10.20;94.10;;;;;;5050158;28;20579;-80
2021/05/06 07:53:49;;;;;;;12.00;10.77;;;10.40;94.90;;;;;;5030634;28;20182;-81
2021/05/06 07:56:16;;;;;;;12.40;10.50;;;10.30;94.20;;;;;;5042566;28;20932;-81
2021/05/06 07:58:43;;;;;;;12.13;10.63;;;10.40;94.50;;;;;;5051847;28;20514;-82
2021/05/06 08:01:09;;;;;;;11.10;10.10;;;10.50;93.90;;;;;;5050827;28;20439;-81
2021/05/06 08:03:36;;;;;;;14.67;11.77;;;10.40;93.30;;;;;;5034244;28;20434;-81
2021/05/06 08:06:01;;;;;;;12.10;10.97;;;10.50;93.10;;;;;;5055359;28;20496;-81
2021/05/06 08:08:27;;;;;;;12.47;11.17;;;10.50;93.10;;;;;;5054324;28;21026;-81
2021/05/06 08:10:58;;;;;;;10.70;9.70;;;10.60;93.60;;;;;;5055618;28;20176;-81
2021/05/06 08:13:24;;;;;;;11.17;10.17;;;10.70;93.60;;;;;;5054280;28;20443;-81
2021/05/06 08:15:51;;;;;;;11.70;10.50;;;10.90;93.30;;;;;;5054162;28;20428;-81
2021/05/06 08:18:17;;;;;;;12.60;11.30;;;10.90;93.20;;;;;;5054839;28;20467;-81
2021/05/06 08:20:46;;;;;;;11.67;10.47;;;11.00;92.60;;;;;;5055408;28;20437;-82
2021/05/06 08:23:12;;;;;;;12.33;11.13;;;11.00;92.40;;;;;;5058316;28;20466;-81
2021/05/06 08:25:40;;;;;;;11.00;10.00;;;11.00;92.60;;;;;;5075066;28;20965;-81
2021/05/06 08:28:07;;;;;;;9.90;9.07;;;11.00;92.60;;;;;;5075494;28;20494;-81
2021/05/06 08:30:34;;;;;;;12.83;10.47;;;11.00;92.00;;;;;;5074753;28;20402;-81
2021/05/06 08:33:02;;;;;;;12.30;11.10;;;11.00;92.00;;;;;;5074999;28;20452;-81
2021/05/06 08:35:28;;;;;;;11.63;10.50;;;11.10;91.90;;;;;;5074548;28;20429;-81
2021/05/06 08:37:53;;;;;;;12.33;10.43;;;11.10;91.60;;;;;;5074918;28;20972;-80
2021/05/06 08:40:20;;;;;;;12.87;11.67;;;11.10;92.10;;;;;;5074160;28;20263;-81
2021/05/06 08:42:46;;;;;;;11.43;10.30;;;11.10;92.00;;;;;;5073640;28;20953;-78
2021/05/06 08:45:13;;;;;;;12.47;11.27;;;11.10;91.60;;;;;;5074003;28;20426;-81
2021/05/06 08:47:39;;;;;;;10.57;9.67;;;11.20;92.20;;;;;;5073397;28;20462;-81
2021/05/06 08:50:05;;;;;;;11.10;10.00;;;11.30;92.30;;;;;;5074907;28;20422;-82
2021/05/06 08:52:32;;;;;;;11.13;10.10;;;11.30;92.30;;;;;;5073849;28;21118;-82
2021/05/06 08:54:58;;;;;;;10.27;8.97;;;11.30;91.00;;;;;;5074647;28;20801;-83
2021/05/06 08:57:26;;;;;;;9.30;8.40;;;11.40;90.90;;;;;;5072817;28;20408;-82
2021/05/06 08:59:53;;;;;;;10.00;9.20;;;11.60;91.80;;;;;;5074428;28;20456;-82
2021/05/06 09:02:21;;;;;;;10.37;9.37;;;11.90;91.50;;;;;;5074550;28;20429;-82
2021/05/06 09:04:47;;;;;;;9.70;8.80;;;12.10;91.20;;;;;;5074865;28;20405;-83
2021/05/06 09:07:13;;;;;;;10.33;8.80;;;12.20;90.80;;;;;;5074197;28;20418;-82
2021/05/06 09:09:50;;;;;;;10.03;9.23;;;12.30;89.70;;;;;;5074708;28;20557;-82
2021/05/06 09:12:17;;;;;;;8.40;7.60;;;12.30;87.10;;;;;;5074199;28;20409;-82
2021/05/06 09:14:50;;;;;;;8.50;7.43;;;12.30;86.00;;;;;;5073054;28;20919;-82
2021/05/06 09:17:33;;;;;;;8.67;7.87;;;12.30;84.40;;;;;;5074201;28;20458;-82
2021/05/06 09:20:05;;;;;;;8.50;7.63;;;12.40;85.60;;;;;;5074583;28;20449;-82
2021/05/06 09:22:51;;;;;;;8.77;8.17;;;12.50;84.80;;;;;;5073875;28;20415;-82
2021/05/06 09:25:34;;;;;;;9.83;8.97;;;12.50;84.80;;;;;;5074012;28;20647;-82
2021/05/06 09:28:08;;;;;;;8.33;7.63;;;12.40;83.30;;;;;;5074415;28;20415;-82
2021/05/06 09:30:48;;;;;;;7.87;7.17;;;12.50;84.90;;;;;;5072810;28;20435;-82
2021/05/06 09:33:14;;;;;;;6.90;6.47;;;12.60;86.90;;;;;;5073751;28;20399;-81
2021/05/06 09:35:46;;;;;;;7.40;6.80;;;12.80;83.40;;;;;;5074476;28;20482;-82
2021/05/06 09:38:28;;;;;;;7.80;6.67;;;13.00;82.70;;;;;;5073899;28;20803;-82
2021/05/06 09:40:57;;;;;;;7.00;6.40;;;13.30;80.20;;;;;;5072767;28;20757;-82
2021/05/06 09:43:26;;;;;;;6.90;6.40;;;13.60;80.20;;;;;;5072292;28;20499;-82
2021/05/06 09:45:52;;;;;;;7.47;6.93;;;13.70;76.40;;;;;;5072583;28;20416;-82
2021/05/06 09:48:22;;;;;;;7.30;6.70;;;13.90;75.40;;;;;;5073357;28;20767;-82
2021/05/06 09:50:58;;;;;;;6.80;6.20;;;14.00;74.60;;;;;;5074044;28;20396;-82
2021/05/06 09:53:31;;;;;;;7.30;6.80;;;14.20;77.00;;;;;;5072180;28;20425;-82
2021/05/06 09:55:59;;;;;;;6.70;6.20;;;14.40;76.90;;;;;;5073623;28;20399;-83
2021/05/06 09:58:28;;;;;;;6.60;6.20;;;14.40;71.30;;;;;;5073095;28;20563;-82
2021/05/06 10:00:55;;;;;;;6.33;5.93;;;14.50;69.70;;;;;;5073421;28;20438;-82
2021/05/06 10:03:32;;;;;;;6.30;5.90;;;14.50;71.30;;;;;;5073071;28;20415;-82
2021/05/06 10:06:13;;;;;;;6.10;5.60;;;14.70;73.50;;;;;;5073411;28;20453;-82
2021/05/06 10:08:39;;;;;;;7.20;6.80;;;14.80;71.10;;;;;;5073099;28;20412;-82
2021/05/06 10:11:18;;;;;;;5.80;5.40;;;15.10;72.10;;;;;;5072618;28;20414;-82
2021/05/06 10:13:46;;;;;;;5.90;5.50;;;15.30;71.20;;;;;;5072092;28;20400;-82
2021/05/06 10:16:13;;;;;;;6.53;6.13;;;15.40;67.70;;;;;;5073071;28;20467;-83
2021/05/06 10:18:41;;;;;;;5.90;5.40;;;15.60;69.60;;;;;;5072683;28;20785;-82
2021/05/06 10:21:12;;;;;;;6.80;6.30;;;15.60;68.10;;;;;;5071961;28;20423;-83
2021/05/06 10:23:38;;;;;;;5.80;5.40;;;15.70;64.70;;;;;;5065741;28;20464;-82
2021/05/06 10:26:04;;;;;;;5.87;5.27;;;15.60;65.40;;;;;;5052409;28;20405;-83
2021/05/06 10:28:36;;;;;;;8.13;7.30;;;15.40;62.90;;;;;;5052466;28;20448;-82
2021/05/06 10:31:04;;;;;;;6.83;6.33;;;15.20;62.90;;;;;;5053007;28;20398;-83
2021/05/06 10:33:34;;;;;;;7.10;6.60;;;15.10;63.80;;;;;;5052542;28;20417;-82
2021/05/06 10:36:03;;;;;;;7.30;6.80;;;14.90;62.90;;;;;;5052760;28;20748;-82
2021/05/06 10:38:35;;;;;;;5.60;5.30;;;14.90;65.30;;;;;;5034535;28;20970;-82
2021/05/06 10:41:22;;;;;;;5.97;5.47;;;15.00;65.20;;;;;;5035592;28;20419;-82
2021/05/06 10:43:58;;;;;;;5.30;5.00;;;15.00;62.80;;;;;;5052921;28;20411;-82
2021/05/06 10:46:57;;;;;;;6.07;5.67;;;15.10;63.60;;;;;;5052384;28;20479;-82
2021/05/06 10:49:38;;;;;;;6.10;5.70;;;15.30;65.50;;;;;;5052325;28;20447;-82
2021/05/06 10:52:06;;;;;;;6.90;6.40;;;15.50;63.90;;;;;;5052894;28;20425;-82
2021/05/06 10:54:36;;;;;;;5.83;5.53;;;15.60;60.90;;;;;;5052251;28;20406;-83
2021/05/06 10:57:28;;;;;;;8.10;7.60;;;15.70;60.30;;;;;;5052810;28;20402;-82
2021/05/06 10:59:55;;;;;;;5.90;5.50;;;15.90;60.60;;;;;;5052615;28;20457;-82
2021/05/06 11:02:39;;;;;;;6.00;5.50;;;16.00;61.60;;;;;;5051929;28;20410;-82
2021/05/06 11:05:14;;;;;;;5.47;5.17;;;16.30;59.80;;;;;;5052891;28;20418;-82
2021/05/06 11:07:40;;;;;;;5.90;5.60;;;16.20;55.90;;;;;;5052030;28;20418;-82
2021/05/06 11:10:07;;;;;;;5.20;4.90;;;16.10;55.80;;;;;;5052488;28;20417;-82
2021/05/06 11:12:36;;;;;;;6.07;5.57;;;16.10;56.00;;;;;;5051679;28;20924;-82
2021/05/06 11:15:05;;;;;;;5.80;5.50;;;15.90;55.20;;;;;;5052527;28;20413;-82
2021/05/06 11:17:37;;;;;;;5.93;5.40;;;15.80;54.50;;;;;;5052145;28;20776;-82
2021/05/06 11:20:29;;;;;;;5.63;5.33;;;15.60;56.40;;;;;;5052393;28;20471;-82
2021/05/06 11:23:00;;;;;;;6.93;6.43;;;15.50;57.90;;;;;;5052240;28;20470;-82
2021/05/06 11:25:26;;;;;;;4.70;4.40;;;15.40;57.30;;;;;;5051895;28;20409;-82
2021/05/06 11:27:55;;;;;;;4.90;4.60;;;15.30;58.20;;;;;;5052129;28;20427;-82
2021/05/06 11:30:37;;;;;;;5.83;5.53;;;15.30;57.10;;;;;;5051808;28;20405;-81
2021/05/06 11:33:21;;;;;;;6.87;6.40;;;15.30;55.60;;;;;;5052494;28;20595;-82
2021/05/06 11:36:07;;;;;;;5.43;5.03;;;15.30;56.20;;;;;;5052323;28;20406;-82
2021/05/06 11:38:36;;;;;;;5.50;5.10;;;15.40;55.50;;;;;;5054701;28;20509;-82
2021/05/06 11:41:18;;;;;;;4.90;4.60;;;15.50;58.50;;;;;;5038572;28;20408;-82
2021/05/06 11:43:54;;;;;;;4.10;3.90;;;15.70;56.70;;;;;;5055826;28;20391;-82
2021/05/06 11:46:24;;;;;;;4.27;3.97;;;15.80;55.80;;;;;;5056197;28;20445;-83
2021/05/06 11:48:51;;;;;;;4.30;4.10;;;16.00;54.70;;;;;;5056296;28;20520;-82
2021/05/06 11:51:28;;;;;;;4.50;4.30;;;16.20;54.30;;;;;;5038424;28;20810;-82
2021/05/06 11:54:15;;;;;;;4.50;4.17;;;16.40;55.40;;;;;;5056387;28;20415;-83
2021/05/06 11:56:53;;;;;;;4.27;3.97;;;16.40;57.00;;;;;;5055584;28;20533;-82
2021/05/06 11:59:24;;;;;;;4.07;3.87;;;16.40;54.70;;;;;;5037985;28;20977;-82
2021/05/06 12:01:51;;;;;;;3.83;3.63;;;16.50;53.60;;;;;;5056253;28;20489;-83
2021/05/06 12:04:31;;;;;;;4.97;4.50;;;16.30;53.60;;;;;;5055928;28;20801;-82
2021/05/06 12:06:58;;;;;;;4.27;4.07;;;16.20;54.20;;;;;;5055651;28;20913;-82
2021/05/06 12:09:29;;;;;;;3.87;3.67;;;16.10;55.10;;;;;;5055229;28;20905;-82
2021/05/06 12:11:56;;;;;;;4.10;3.80;;;16.00;53.80;;;;;;5055943;28;20413;-82
2021/05/06 12:14:29;;;;;;;4.10;3.80;;;15.90;54.30;;;;;;5055780;28;20408;-82
2021/05/06 12:16:55;;;;;;;4.60;4.30;;;15.60;54.30;;;;;;5056065;28;20433;-82
2021/05/06 12:19:20;;;;;;;4.50;4.20;;;15.40;54.30;;;;;;5055323;28;20456;-82
2021/05/06 12:21:51;;;;;;;4.70;4.50;;;15.30;54.50;;;;;;5055040;28;20599;-82
2021/05/06 12:24:36;;;;;;;5.30;4.90;;;15.20;54.70;;;;;;5055890;28;20217;-82
2021/05/06 12:27:15;;;;;;;4.30;4.00;;;14.90;55.40;;;;;;5055821;28;20428;-82
2021/05/06 12:29:41;;;;;;;4.30;4.00;;;14.90;56.40;;;;;;5054850;28;20412;-82
2021/05/06 12:32:19;;;;;;;4.43;4.10;;;14.80;57.60;;;;;;5055604;28;20435;-82
2021/05/06 12:34:45;;;;;;;3.43;3.33;;;14.80;54.70;;;;;;5054849;28;20754;-82
2021/05/06 12:37:11;;;;;;;3.67;3.47;;;14.70;54.60;;;;;;5055386;28;20408;-82
2021/05/06 12:39:40;;;;;;;4.43;4.23;;;14.70;55.70;;;;;;5054576;28;20890;-82
2021/05/06 12:42:06;;;;;;;3.70;3.40;;;14.60;54.10;;;;;;5055262;28;20799;-82
2021/05/06 12:44:50;;;;;;;4.47;4.27;;;14.60;53.70;;;;;;5054713;28;20469;-82
2021/05/06 12:47:19;;;;;;;4.83;4.50;;;14.80;55.60;;;;;;5054987;28;20477;-82
2021/05/06 12:49:50;;;;;;;3.37;3.20;;;14.80;55.00;;;;;;5054137;28;20424;-82
2021/05/06 12:52:47;;;;;;;3.70;3.50;;;14.70;54.00;;;;;;5037420;28;20473;-82
2021/05/06 12:55:15;;;;;;;4.37;4.07;;;14.80;55.00;;;;;;5055083;28;20392;-82
2021/05/06 12:57:42;;;;;;;4.40;4.20;;;15.00;56.50;;;;;;5054377;28;20413;-82
2021/05/06 13:00:20;;;;;;;4.30;4.00;;;15.10;55.70;;;;;;5054864;28;20518;-82
2021/05/06 13:02:46;;;;;;;4.63;4.33;;;15.20;55.20;;;;;;5054265;28;20408;-82
2021/05/06 13:05:26;;;;;;;4.83;4.53;;;15.30;57.10;;;;;;5054601;28;20404;-82
2021/05/06 13:07:52;;;;;;;4.93;4.63;;;15.50;57.80;;;;;;5054257;28;20880;-82
2021/05/06 13:10:42;;;;;;;4.77;4.53;;;15.60;56.80;;;;;;5054270;28;20405;-82
2021/05/06 13:13:09;;;;;;;4.27;4.07;;;15.70;56.60;;;;;;5055081;28;20420;-84
2021/05/06 13:15:53;;;;;;;4.70;3.90;;;15.80;64.10;;;;;;5036098;28;20504;-84
2021/05/06 13:18:20;;;;;;;3.87;3.67;;;16.10;65.50;;;;;;5055089;28;20516;-84
2021/05/06 13:20:48;;;;;;;4.80;4.60;;;16.50;64.40;;;;;;5055658;28;20412;-83
2021/05/06 13:23:29;;;;;;;4.00;3.80;;;16.80;60.10;;;;;;5054842;28;20873;-84
2021/05/06 13:25:56;;;;;;;4.77;4.47;;;16.90;58.90;;;;;;5054776;28;20483;-84
2021/05/06 13:28:28;;;;;;;3.90;3.80;;;16.80;53.00;;;;;;5036565;28;20415;-84
2021/05/06 13:31:16;;;;;;;4.20;3.80;;;16.60;58.10;;;;;;5055006;28;20835;-84
2021/05/06 13:33:42;;;;;;;4.30;4.10;;;16.90;58.50;;;;;;5034594;28;20574;-84
2021/05/06 13:36:08;;;;;;;4.93;4.63;;;17.10;57.10;;;;;;5052803;28;20420;-80
2021/05/06 13:38:49;;;;;;;4.07;3.87;;;17.00;54.20;;;;;;5018676;28;20803;-79
2021/05/06 13:41:16;;;;;;;4.50;4.20;;;16.90;54.80;;;;;;5053724;28;20434;-79
2021/05/06 13:43:42;;;;;;;4.90;4.63;;;16.80;56.00;;;;;;5052693;28;20477;-79
2021/05/06 13:46:09;;;;;;;5.82;5.53;;;16.60;54.10;;;;;;5053247;28;20819;-85
2021/05/06 13:48:36;;;;;;;5.17;4.80;;;16.50;53.60;;;;;;5052827;28;20189;-85
2021/05/06 13:51:03;;;;;;;4.83;4.60;;;16.50;56.50;;;;;;5054087;28;20418;-85
2021/05/06 13:53:29;;;;;;;36.43;30.10;;;16.50;56.10;;;;;;5053247;28;20419;-83
2021/05/06 13:55:55;;;;;;;145.73;100.50;;;16.50;55.50;;;;;;5052964;28;20490;-84
2021/05/06 13:58:20;;;;;;;77.40;60.83;;;16.50;54.10;;;;;;5055710;28;20278;-85
2021/05/06 14:00:46;;;;;;;7.10;6.60;;;16.50;55.70;;;;;;5058294;28;20188;-84
2021/05/06 14:03:12;;;;;;;4.10;3.70;;;16.50;53.20;;;;;;5045198;28;20546;-85
2021/05/06 14:05:37;;;;;;;5.30;5.00;;;16.40;53.50;;;;;;5055453;28;20196;-84
2021/05/06 14:08:03;;;;;;;4.80;4.50;;;16.40;53.30;;;;;;5054808;28;20172;-84
2021/05/06 14:10:29;;;;;;;5.73;5.33;;;16.40;54.30;;;;;;5054413;28;20613;-84
2021/05/06 14:12:55;;;;;;;4.97;4.67;;;16.30;54.60;;;;;;5053300;28;20433;-83
2021/05/06 14:15:20;;;;;;;6.30;5.80;;;16.20;52.90;;;;;;5034527;28;20934;-81
2021/05/06 14:17:46;;;;;;;4.27;4.07;;;16.10;52.90;;;;;;5052001;28;20179;-82
2021/05/06 14:20:13;;;;;;;5.60;5.20;;;16.10;53.10;;;;;;5052715;28;20193;-81
2021/05/06 14:22:39;;;;;;;5.10;4.90;;;16.00;51.40;;;;;;5051908;28;20181;-81
2021/05/06 14:25:05;;;;;;;4.80;4.60;;;16.00;51.00;;;;;;5053162;28;20953;-81
2021/05/06 14:27:34;;;;;;;5.77;5.23;;;16.00;53.60;;;;;;5052620;28;20422;-80
2021/05/06 14:29:59;;;;;;;5.77;5.33;;;16.10;53.80;;;;;;5052682;28;20426;-83
2021/05/06 14:32:25;;;;;;;39.17;30.13;;;15.90;50.30;;;;;;5052529;28;20424;-80
2021/05/06 14:34:54;;;;;;;115.70;89.93;;;15.80;52.50;;;;;;5051692;28;20186;-80
2021/05/06 14:37:22;;;;;;;5.90;5.50;;;15.80;54.50;;;;;;5052766;28;20179;-80
2021/05/06 14:39:48;;;;;;;6.23;5.50;;;15.40;52.10;;;;;;5052399;28;20543;-80
2021/05/06 14:42:14;;;;;;;5.20;4.90;;;15.40;54.60;;;;;;5052941;28;20885;-78
2021/05/06 14:44:39;;;;;;;5.73;5.30;;;15.40;54.60;;;;;;5051601;28;20432;-82
2021/05/06 14:47:05;;;;;;;5.70;5.20;;;15.40;54.90;;;;;;5052374;28;20189;-81
2021/05/06 14:49:31;;;;;;;4.67;4.43;;;15.40;55.70;;;;;;5052358;28;20174;-81
2021/05/06 14:52:03;;;;;;;5.70;5.40;;;15.50;53.40;;;;;;5034269;28;20177;-81
2021/05/06 14:54:29;;;;;;;4.87;4.57;;;15.40;54.30;;;;;;5052746;28;20406;-81
2021/05/06 14:56:55;;;;;;;5.60;5.30;;;15.40;54.40;;;;;;5034454;28;20424;-81
2021/05/06 14:59:20;;;;;;;4.40;4.20;;;15.40;54.50;;;;;;5035081;28;20673;-81
2021/05/06 15:01:46;;;;;;;5.97;5.57;;;15.40;53.00;;;;;;5052070;28;20258;-81
2021/05/06 15:04:12;;;;;;;4.87;4.63;;;15.40;53.10;;;;;;5034927;28;20173;-81
2021/05/06 15:06:38;;;;;;;4.63;4.27;;;15.30;54.20;;;;;;5034231;28;20178;-82
2021/05/06 15:09:05;;;;;;;4.77;4.47;;;15.30;54.90;;;;;;5052528;28;20641;-81
2021/05/06 15:11:32;;;;;;;5.30;4.90;;;15.30;53.40;;;;;;5052569;28;20253;-81
2021/05/06 15:13:59;;;;;;;5.40;5.10;;;15.30;53.50;;;;;;5052685;28;20412;-81
2021/05/06 15:16:25;;;;;;;5.17;4.97;;;15.20;53.20;;;;;;5034810;28;20507;-81
2021/05/06 15:18:50;;;;;;;6.00;5.60;;;15.20;53.10;;;;;;5051373;28;20540;-81
2021/05/06 15:21:17;;;;;;;4.47;4.17;;;15.10;52.30;;;;;;5034578;28;20173;-81
2021/05/06 15:23:42;;;;;;;5.20;4.70;;;15.10;52.60;;;;;;5059642;28;20225;-81
2021/05/06 15:26:08;;;;;;;4.77;4.37;;;15.10;53.50;;;;;;5072376;28;20435;-81
2021/05/06 15:28:34;;;;;;;5.37;4.87;;;15.10;54.10;;;;;;5071625;28;20180;-82
2021/05/06 15:31:00;;;;;;;4.40;4.20;;;14.90;52.00;;;;;;5072410;28;20837;-82
2021/05/06 15:33:26;;;;;;;4.90;4.70;;;14.80;52.00;;;;;;5072260;28;20225;-81
2021/05/06 15:35:52;;;;;;;5.30;5.00;;;14.80;51.70;;;;;;5070564;28;20418;-81
2021/05/06 15:38:19;;;;;;;5.67;5.27;;;14.70;52.20;;;;;;5071213;28;20298;-82
2021/05/06 15:40:51;;;;;;;4.27;4.07;;;14.70;51.90;;;;;;5071516;28;20414;-82
2021/05/06 15:43:20;;;;;;;4.33;3.93;;;14.50;51.00;;;;;;5072375;28;20394;-81
2021/05/06 15:45:46;;;;;;;5.37;5.07;;;14.50;51.90;;;;;;5071340;28;20425;-82
2021/05/06 15:48:13;;;;;;;4.50;4.20;;;14.50;52.60;;;;;;5072275;28;20757;-81
2021/05/06 15:50:41;;;;;;;5.03;4.83;;;14.50;52.60;;;;;;5071451;28;20542;-81
2021/05/06 15:53:07;;;;;;;4.00;3.80;;;14.50;53.40;;;;;;5071118;28;20878;-81
2021/05/06 15:55:34;;;;;;;5.80;5.43;;;14.40;52.60;;;;;;5072192;28;20424;-81
2021/05/06 15:58:02;;;;;;;5.90;5.50;;;14.30;52.80;;;;;;5071458;28;20548;-81
2021/05/06 16:00:28;;;;;;;4.90;4.60;;;14.20;53.60;;;;;;5072236;28;20470;-81
2021/05/06 16:03:00;;;;;;;5.30;4.90;;;14.20;55.00;;;;;;5071590;28;20412;-81
2021/05/06 16:05:28;;;;;;;5.40;4.90;;;14.20;55.40;;;;;;5071053;28;20407;-81
2021/05/06 16:07:55;;;;;;;5.47;5.17;;;14.20;55.40;;;;;;5071427;28;20402;-81
2021/05/06 16:10:22;;;;;;;5.17;4.77;;;14.00;55.90;;;;;;5071996;28;20408;-81
2021/05/06 16:12:47;;;;;;;5.40;4.90;;;13.90;57.20;;;;;;5070255;28;20422;-81
2021/05/06 16:15:14;;;;;;;5.50;5.03;;;13.70;57.80;;;;;;5072127;28;20947;-81
2021/05/06 16:17:40;;;;;;;4.60;4.40;;;13.50;58.70;;;;;;5071363;28;20177;-82
2021/05/06 16:20:13;;;;;;;4.20;4.00;;;13.50;59.70;;;;;;5070746;28;20466;-81
2021/05/06 16:22:40;;;;;;;6.80;4.33;;;13.40;61.40;;;;;;5070267;28;20405;-82
2021/05/06 16:25:06;;;;;;;4.00;3.80;;;13.50;61.10;;;;;;5073890;28;20997;-81
2021/05/06 16:27:32;;;;;;;5.30;4.80;;;13.20;61.10;;;;;;5075595;28;20415;-80
2021/05/06 16:29:58;;;;;;;5.13;4.93;;;13.00;61.00;;;;;;5073844;28;20526;-81